Time;durP1;ratioP1;P1;durP2;ratioP2;P2;SDS_P1;SDS_P2;PMS_P1;PMS_P2;Temp;Humidity;BMP_temperature;BMP_pressure;BME280_temperature;BME280_humidity;BME280_pressure;Samples;Min_cycle;Max_cycle;Signal;HPM_P1;HPM_P2
2021/12/08 00:02:25;;;;;;;;;;;15.80;37.70;;;;;;8366081;28;20003;-48
2021/12/08 00:06:25;;;;;;;;;;;15.80;37.80;;;;;;8365525;28;20289;-48
2021/12/08 00:14:32;;;;;;;;;;;15.80;37.70;;;;;;8367517;28;19916;-48
2021/12/08 00:18:34;;;;;;;;;;;15.80;37.80;;;;;;8365108;28;19917;-47
2021/12/08 00:22:36;;;;;;;;;;;15.80;37.70;;;;;;8364848;28;21306;-47
2021/12/08 00:26:37;;;;;;;;;;;15.80;37.70;;;;;;8365376;28;19913;-50
2021/12/08 00:30:39;;;;;;;;;;;15.80;37.70;;;;;;8364747;28;19925;-47
2021/12/08 00:34:40;;;;;;;;;;;15.80;37.70;;;;;;8364935;28;19917;-48
2021/12/08 00:38:40;;;;;;;;;;;15.70;37.70;;;;;;8364821;28;20292;-48
2021/12/08 00:42:41;;;;;;;;;;;15.70;37.70;;;;;;8364424;28;20385;-49
2021/12/08 00:46:42;;;;;;;;;;;15.80;37.70;;;;;;8364805;28;20011;-51
2021/12/08 00:50:43;;;;;;;;;;;15.80;37.80;;;;;;8364769;28;19924;-48
2021/12/08 00:54:43;;;;;;;;;;;15.70;37.80;;;;;;8364103;28;19917;-49
2021/12/08 00:58:44;;;;;;;;;;;15.70;37.80;;;;;;8363951;28;20343;-47
2021/12/08 01:02:44;;;;;;;;;;;15.70;37.80;;;;;;8364413;28;19917;-49
2021/12/08 01:06:45;;;;;;;;;;;15.70;37.80;;;;;;8363762;28;19924;-49
2021/12/08 01:10:46;;;;;;;;;;;15.70;37.80;;;;;;8364180;28;20004;-47
2021/12/08 01:14:47;;;;;;;;;;;15.70;37.80;;;;;;8363448;28;19952;-47
2021/12/08 01:18:47;;;;;;;;;;;15.70;37.80;;;;;;8363769;28;20289;-48
2021/12/08 01:22:48;;;;;;;;;;;15.70;37.80;;;;;;8364269;28;20293;-48
2021/12/08 01:26:49;;;;;;;;;;;15.70;37.90;;;;;;8363719;28;19928;-47
2021/12/08 01:30:50;;;;;;;;;;;15.70;37.90;;;;;;8363974;28;19925;-47
2021/12/08 01:34:52;;;;;;;;;;;15.70;37.90;;;;;;8364042;28;19928;-47
2021/12/08 01:38:53;;;;;;;;;;;15.70;37.90;;;;;;8362936;28;20171;-48
2021/12/08 01:42:57;;;;;;;;;;;15.70;37.90;;;;;;8363335;28;20027;-48
2021/12/08 01:46:57;;;;;;;;;;;15.70;37.80;;;;;;8363414;28;20362;-48
2021/12/08 01:51:18;;;;;;;;;;;15.70;37.80;;;;;;8362747;28;20020;-48
2021/12/08 01:55:18;;;;;;;;;;;15.70;37.90;;;;;;8362793;28;19962;-49
2021/12/08 01:59:19;;;;;;;;;;;15.70;37.80;;;;;;8363315;28;19924;-48
2021/12/08 02:03:20;;;;;;;;;;;15.70;37.90;;;;;;8362622;28;19924;-48
2021/12/08 02:07:21;;;;;;;;;;;15.70;37.80;;;;;;8363261;28;20297;-49
2021/12/08 02:11:22;;;;;;;;;;;15.70;37.80;;;;;;8353647;28;19991;-48
2021/12/08 02:15:22;;;;;;;;;;;15.70;37.80;;;;;;8369171;28;20393;-48
2021/12/08 02:19:23;;;;;;;;;;;15.70;37.80;;;;;;8369572;28;20416;-48
2021/12/08 02:23:23;;;;;;;;;;;15.70;37.80;;;;;;8369132;28;19917;-49
2021/12/08 02:27:24;;;;;;;;;;;15.80;37.80;;;;;;8368742;28;19927;-48
2021/12/08 02:48:50;;;;;;;;;;;15.70;37.80;;;;;;8368005;28;19936;-48
2021/12/08 02:52:52;;;;;;;;;;;15.70;37.80;;;;;;8368345;28;19917;-48
2021/12/08 02:56:54;;;;;;;;;;;15.70;37.90;;;;;;8367723;28;19959;-49
2021/12/08 03:00:56;;;;;;;;;;;15.70;37.90;;;;;;8368601;28;19921;-49
2021/12/08 03:04:56;;;;;;;;;;;15.70;37.90;;;;;;8368044;28;20274;-49
2021/12/08 03:08:57;;;;;;;;;;;15.60;38.40;;;;;;8367337;28;19920;-48
2021/12/08 03:12:57;;;;;;;;;;;15.60;37.90;;;;;;8367697;28;20019;-48
2021/12/08 03:17:00;;;;;;;;;;;15.60;37.90;;;;;;8367820;28;19913;-49
2021/12/08 03:21:01;;;;;;;;;;;15.60;37.90;;;;;;8367115;28;20341;-48
2021/12/08 03:25:05;;;;;;;;;;;15.60;38.00;;;;;;8367514;28;19927;-49
2021/12/08 03:29:19;;;;;;;;;;;15.60;38.00;;;;;;8367178;28;19921;-48
2021/12/08 03:33:19;;;;;;;;;;;15.60;38.00;;;;;;8367914;28;19917;-49
2021/12/08 03:37:31;;;;;;;;;;;15.60;38.00;;;;;;8366961;28;19916;-49
2021/12/08 03:41:33;;;;;;;;;;;15.60;37.90;;;;;;8368194;28;19948;-50
2021/12/08 03:45:36;;;;;;;;;;;15.60;37.90;;;;;;8366234;28;19923;-48
2021/12/08 03:49:36;;;;;;;;;;;15.60;37.90;;;;;;8366277;28;19971;-49
2021/12/08 03:53:37;;;;;;;;;;;15.60;38.00;;;;;;8366460;28;20374;-48
2021/12/08 03:57:38;;;;;;;;;;;15.60;38.00;;;;;;8365903;28;20378;-48
2021/12/08 04:01:38;;;;;;;;;;;15.60;37.90;;;;;;8366190;28;20019;-48
2021/12/08 04:05:44;;;;;;;;;;;15.70;38.00;;;;;;8365998;28;19975;-49
2021/12/08 04:09:48;;;;;;;;;;;15.60;37.90;;;;;;8365295;28;20348;-48
2021/12/08 04:13:54;;;;;;;;;;;15.60;38.00;;;;;;8365999;28;19919;-49
2021/12/08 04:17:54;;;;;;;;;;;15.60;38.00;;;;;;8365236;28;19917;-49
2021/12/08 04:21:56;;;;;;;;;;;15.60;38.00;;;;;;8365610;28;19913;-49
2021/12/08 04:25:58;;;;;;;;;;;15.70;38.00;;;;;;8365148;28;19916;-48
2021/12/08 04:29:59;;;;;;;;;;;15.70;37.90;;;;;;8364524;28;20015;-52
2021/12/08 04:34:02;;;;;;;;;;;15.70;37.90;;;;;;8364409;28;19990;-48
2021/12/08 04:38:05;;;;;;;;;;;15.70;37.90;;;;;;8365086;28;19924;-50
2021/12/08 04:42:10;;;;;;;;;;;15.70;37.90;;;;;;8364836;28;19921;-49
2021/12/08 04:46:24;;;;;;;;;;;15.70;37.90;;;;;;8366710;28;19962;-53
2021/12/08 04:50:47;;;;;;;;;;;15.70;37.90;;;;;;8364506;28;19928;-50
2021/12/08 05:03:46;;;;;;;;;;;15.70;37.90;;;;;;8364816;28;19967;-49
2021/12/08 05:11:52;;;;;;;;;;;15.70;38.00;;;;;;8364119;28;20003;-49
2021/12/08 05:15:55;;;;;;;;;;;15.70;38.00;;;;;;8363889;28;20247;-48
2021/12/08 05:19:57;;;;;;;;;;;15.70;38.00;;;;;;8363733;28;20312;-49
2021/12/08 05:24:00;;;;;;;;;;;15.70;38.00;;;;;;8363217;28;19920;-49
2021/12/08 05:28:03;;;;;;;;;;;15.60;38.00;;;;;;8363633;28;20361;-49
2021/12/08 05:32:04;;;;;;;;;;;15.60;38.00;;;;;;8363973;28;19912;-48
2021/12/08 05:36:05;;;;;;;;;;;15.60;38.00;;;;;;8363189;28;20362;-49
2021/12/08 05:40:07;;;;;;;;;;;15.60;38.00;;;;;;8363343;28;19923;-52
2021/12/08 05:44:08;;;;;;;;;;;15.60;38.00;;;;;;8363578;28;19923;-48
2021/12/08 05:48:09;;;;;;;;;;;15.60;38.00;;;;;;8361788;28;19948;-49
2021/12/08 05:52:10;;;;;;;;;;;15.60;38.00;;;;;;8363624;28;19924;-49
2021/12/08 05:56:10;;;;;;;;;;;15.60;38.00;;;;;;8363214;28;19917;-49
2021/12/08 06:00:13;;;;;;;;;;;15.60;38.00;;;;;;8362697;28;19921;-49
2021/12/08 06:04:14;;;;;;;;;;;15.60;38.00;;;;;;8362889;28;20370;-49
2021/12/08 06:08:15;;;;;;;;;;;15.60;38.00;;;;;;8362806;28;20024;-53
2021/12/08 06:12:15;;;;;;;;;;;15.60;38.00;;;;;;8362690;28;20306;-51
2021/12/08 06:16:18;;;;;;;;;;;15.60;38.10;;;;;;8362790;28;20294;-50
2021/12/08 06:20:19;;;;;;;;;;;15.60;38.10;;;;;;8362619;28;20386;-50
2021/12/08 06:24:20;;;;;;;;;;;15.60;38.10;;;;;;8362179;28;19917;-49
2021/12/08 06:28:21;;;;;;;;;;;15.60;38.10;;;;;;8362713;28;19956;-49
2021/12/08 06:32:21;;;;;;;;;;;15.60;38.10;;;;;;8362986;28;19917;-49
2021/12/08 06:36:25;;;;;;;;;;;15.60;38.10;;;;;;8361949;28;19929;-50
2021/12/08 06:40:47;;;;;;;;;;;15.60;38.10;;;;;;8362455;28;19921;-50
2021/12/08 06:44:49;;;;;;;;;;;15.60;38.10;;;;;;8361290;28;20007;-48
2021/12/08 06:48:56;;;;;;;;;;;15.60;38.10;;;;;;8362112;28;20027;-49
2021/12/08 06:52:56;;;;;;;;;;;15.60;38.10;;;;;;8362705;28;20192;-50
2021/12/08 06:56:59;;;;;;;;;;;15.60;38.10;;;;;;8363007;28;19917;-48
2021/12/08 07:05:27;;;;;;;;;;;15.60;38.10;;;;;;8368038;28;19928;-50
2021/12/08 07:09:42;;;;;;;;;;;15.60;38.10;;;;;;8367903;28;19978;-49
2021/12/08 07:13:43;;;;;;;;;;;15.60;38.10;;;;;;8367457;28;20003;-49
2021/12/08 07:17:45;;;;;;;;;;;15.60;38.10;;;;;;8367736;28;19916;-48
2021/12/08 07:21:46;;;;;;;;;;;15.60;38.10;;;;;;8366850;28;19917;-49
2021/12/08 07:25:48;;;;;;;;;;;15.60;38.10;;;;;;8367301;28;19948;-49
2021/12/08 07:29:49;;;;;;;;;;;15.60;38.10;;;;;;8366373;28;19924;-49
2021/12/08 07:33:50;;;;;;;;;;;15.60;38.10;;;;;;8366508;28;19925;-48
2021/12/08 07:37:51;;;;;;;;;;;15.60;38.10;;;;;;8367116;28;19932;-49
2021/12/08 07:41:53;;;;;;;;;;;15.60;38.10;;;;;;8366250;28;19923;-48
2021/12/08 07:46:02;;;;;;;;;;;15.60;38.20;;;;;;8366989;28;20263;-50
2021/12/08 07:50:09;;;;;;;;;;;15.60;38.20;;;;;;8370223;28;20283;-50
2021/12/08 07:54:10;;;;;;;;;;;15.60;38.20;;;;;;8365957;28;19917;-49
2021/12/08 07:58:12;;;;;;;;;;;15.60;38.20;;;;;;8366679;28;19917;-50
2021/12/08 08:02:13;;;;;;;;;;;15.60;38.70;;;;;;8363990;28;19967;-50
2021/12/08 08:06:15;;;;;;;;;;;15.60;38.20;;;;;;8353548;28;19952;-49
2021/12/08 08:10:16;;;;;;;;;;;15.60;38.20;;;;;;8364826;28;19971;-51
2021/12/08 08:14:19;;;;;;;;;;;15.60;38.20;;;;;;8365837;28;20316;-51
2021/12/08 08:18:25;;;;;;;;;;;15.60;38.20;;;;;;8365420;28;19921;-49
2021/12/08 08:22:27;;;;;;;;;;;15.60;38.20;;;;;;8366088;28;19917;-49
2021/12/08 08:26:29;;;;;;;;;;;15.60;38.30;;;;;;8365400;28;19917;-50
2021/12/08 08:30:34;;;;;;;;;;;15.60;38.20;;;;;;8364722;28;20423;-49
2021/12/08 08:34:38;;;;;;;;;;;15.60;38.20;;;;;;8365101;28;19917;-50
2021/12/08 08:38:42;;;;;;;;;;;15.60;38.20;;;;;;8365253;28;19923;-50
2021/12/08 08:42:43;;;;;;;;;;;15.60;38.20;;;;;;8364480;28;19923;-49
2021/12/08 08:46:45;;;;;;;;;;;15.60;38.20;;;;;;8365026;28;19917;-50
2021/12/08 08:50:55;;;;;;;;;;;15.60;38.30;;;;;;8363111;28;19925;-49
2021/12/08 08:54:57;;;;;;;;;;;15.60;38.20;;;;;;8364219;28;19999;-54
2021/12/08 08:59:00;;;;;;;;;;;15.60;38.30;;;;;;8364420;28;20003;-50
2021/12/08 09:03:02;;;;;;;;;;;15.60;38.20;;;;;;8363788;28;19928;-49
2021/12/08 09:07:05;;;;;;;;;;;15.60;38.20;;;;;;8364454;28;19923;-49
2021/12/08 09:11:12;;;;;;;;;;;15.60;38.20;;;;;;8363764;28;19925;-51
2021/12/08 09:15:19;;;;;;;;;;;15.60;38.20;;;;;;8363464;28;19963;-50
2021/12/08 09:19:26;;;;;;;;;;;15.60;38.20;;;;;;8363778;28;19975;-49
2021/12/08 09:23:30;;;;;;;;;;;15.60;38.20;;;;;;8364083;28;19924;-50
2021/12/08 09:27:33;;;;;;;;;;;15.60;38.30;;;;;;8363286;28;19956;-49
2021/12/08 09:31:42;;;;;;;;;;;15.60;38.30;;;;;;8363764;28;20265;-49
2021/12/08 09:35:42;;;;;;;;;;;15.60;38.30;;;;;;8363522;28;19917;-50
2021/12/08 09:39:48;;;;;;;;;;;15.60;38.30;;;;;;8363013;28;19924;-50
2021/12/08 09:43:51;;;;;;;;;;;15.60;38.30;;;;;;8363562;28;19917;-49
2021/12/08 09:47:52;;;;;;;;;;;15.60;38.40;;;;;;8362772;28;20400;-49
2021/12/08 09:51:54;;;;;;;;;;;15.60;38.40;;;;;;8362911;28;19921;-49
2021/12/08 09:55:55;;;;;;;;;;;15.60;38.40;;;;;;8362688;28;19963;-50
2021/12/08 09:59:56;;;;;;;;;;;15.60;38.40;;;;;;8362846;28;20382;-50
2021/12/08 10:03:56;;;;;;;;;;;15.60;38.40;;;;;;8361791;28;19912;-48
2021/12/08 10:07:58;;;;;;;;;;;15.60;38.40;;;;;;8362803;28;20584;-50
2021/12/08 10:11:59;;;;;;;;;;;15.60;38.40;;;;;;8362519;28;19917;-50
2021/12/08 10:15:59;;;;;;;;;;;15.60;38.40;;;;;;8362823;28;19940;-48
2021/12/08 10:20:12;;;;;;;;;;;15.60;38.40;;;;;;8362580;28;19927;-50
2021/12/08 10:24:33;;;;;;;;;;;15.70;38.40;;;;;;8362534;28;19956;-50
2021/12/08 10:28:35;;;;;;;;;;;15.70;38.40;;;;;;8362169;28;19927;-49
2021/12/08 10:32:36;;;;;;;;;;;15.70;38.40;;;;;;8365160;28;20357;-49
2021/12/08 10:41:02;;;;;;;;;;;15.70;38.40;;;;;;8369305;28;20362;-48
2021/12/08 10:45:10;;;;;;;;;;;15.70;38.30;;;;;;8368091;28;19928;-48
2021/12/08 10:57:55;;;;;;;;;;;15.70;38.40;;;;;;8367979;28;19931;-48
2021/12/08 11:01:59;;;;;;;;;;;15.70;38.30;;;;;;8368433;28;19921;-50
2021/12/08 11:06:01;;;;;;;;;;;15.70;38.30;;;;;;8365868;28;19921;-49
2021/12/08 11:10:16;;;;;;;;;;;15.70;38.30;;;;;;8335881;28;19925;-48
2021/12/08 11:14:16;;;;;;;;;;;15.70;38.30;;;;;;8367755;28;19917;-48
2021/12/08 11:18:21;;;;;;;;;;;15.70;38.30;;;;;;8367147;28;19960;-48
2021/12/08 11:22:29;;;;;;;;;;;15.70;38.30;;;;;;8367827;28;20007;-50
2021/12/08 11:26:36;;;;;;;;;;;15.70;38.30;;;;;;8367418;28;19944;-53
2021/12/08 11:30:36;;;;;;;;;;;15.70;38.40;;;;;;8366617;28;20059;-51
2021/12/08 11:34:39;;;;;;;;;;;15.70;38.40;;;;;;8367352;28;19917;-48
2021/12/08 11:38:41;;;;;;;;;;;15.70;38.40;;;;;;8367011;28;19992;-49
2021/12/08 11:42:41;;;;;;;;;;;15.70;38.40;;;;;;8366433;28;20290;-48
2021/12/08 11:47:08;;;;;;;;;;;15.70;38.40;;;;;;8366585;28;19955;-51
2021/12/08 11:51:09;;;;;;;;;;;15.70;38.40;;;;;;8362950;28;19924;-48
2021/12/08 11:55:14;;;;;;;;;;;15.70;38.40;;;;;;8366677;28;20003;-50
2021/12/08 11:59:15;;;;;;;;;;;15.70;38.40;;;;;;8366667;28;20062;-50
2021/12/08 12:03:17;;;;;;;;;;;15.70;38.40;;;;;;8365833;28;19921;-50
2021/12/08 12:07:18;;;;;;;;;;;15.70;38.40;;;;;;8366283;28;19932;-50
2021/12/08 12:11:19;;;;;;;;;;;15.70;38.40;;;;;;8365807;28;19932;-50
2021/12/08 12:15:20;;;;;;;;;;;15.70;38.40;;;;;;8365669;28;19996;-49
2021/12/08 12:19:22;;;;;;;;;;;15.70;38.40;;;;;;8365679;28;19944;-50
2021/12/08 12:23:58;;;;;;;;;;;15.70;38.40;;;;;;8365538;28;19963;-49
2021/12/08 12:28:02;;;;;;;;;;;15.70;38.30;;;;;;8281702;28;19917;-53
2021/12/08 12:32:09;;;;;;;;;;;15.70;38.40;;;;;;8345240;28;20008;-52
2021/12/08 12:36:27;;;;;;;;;;;15.80;38.40;;;;;;8364751;28;19924;-50
2021/12/08 12:40:47;;;;;;;;;;;15.70;38.40;;;;;;8365459;28;19917;-50
2021/12/08 12:44:57;;;;;;;;;;;15.80;38.40;;;;;;8364769;28;19916;-47
2021/12/08 12:49:17;;;;;;;;;;;15.80;38.40;;;;;;8364489;28;19959;-47
2021/12/08 12:53:38;;;;;;;;;;;15.80;38.40;;;;;;8362625;28;19924;-50
2021/12/08 12:57:58;;;;;;;;;;;15.70;38.40;;;;;;8363634;28;19923;-49
2021/12/08 13:02:06;;;;;;;;;;;15.70;38.30;;;;;;8364750;28;19957;-52
2021/12/08 13:06:07;;;;;;;;;;;15.70;38.30;;;;;;8363863;28;19924;-52
2021/12/08 13:10:09;;;;;;;;;;;15.70;38.40;;;;;;8364281;28;20370;-50
2021/12/08 13:14:20;;;;;;;;;;;15.70;38.40;;;;;;8364239;28;19923;-50
2021/12/08 13:18:23;;;;;;;;;;;15.70;38.40;;;;;;8363435;28;20289;-50
2021/12/08 13:22:43;;;;;;;;;;;15.70;38.50;;;;;;8364125;28;19938;-49
2021/12/08 13:26:46;;;;;;;;;;;15.70;38.40;;;;;;8364152;28;20019;-49
2021/12/08 13:30:49;;;;;;;;;;;15.70;38.40;;;;;;8363286;28;20243;-51
2021/12/08 13:34:57;;;;;;;;;;;15.70;38.40;;;;;;8363539;28;19917;-48
2021/12/08 13:38:57;;;;;;;;;;;15.70;38.40;;;;;;8363194;28;20393;-49
2021/12/08 13:43:05;;;;;;;;;;;15.70;38.40;;;;;;8363065;28;20070;-49
2021/12/08 13:47:09;;;;;;;;;;;15.70;38.40;;;;;;8367961;28;19917;-49
2021/12/08 13:51:17;;;;;;;;;;;15.70;38.40;;;;;;8362657;28;20385;-51
2021/12/08 13:55:20;;;;;;;;;;;15.70;38.40;;;;;;8363706;28;19912;-49
2021/12/08 13:59:39;;;;;;;;;;;15.70;38.40;;;;;;8363297;28;19924;-50
2021/12/08 14:03:41;;;;;;;;;;;15.70;38.40;;;;;;8362870;28;20289;-52
2021/12/08 14:07:43;;;;;;;;;;;15.70;38.40;;;;;;8364935;28;19917;-50
2021/12/08 14:11:43;;;;;;;;;;;15.70;38.40;;;;;;8369690;28;19924;-52
2021/12/08 14:15:48;;;;;;;;;;;15.70;38.40;;;;;;8369297;28;19920;-50
2021/12/08 14:19:49;;;;;;;;;;;15.70;38.40;;;;;;8369377;28;19924;-49
2021/12/08 14:23:51;;;;;;;;;;;15.70;38.40;;;;;;8368717;28;19944;-50
2021/12/08 14:27:52;;;;;;;;;;;15.70;38.40;;;;;;8369200;28;20008;-54
2021/12/08 14:31:54;;;;;;;;;;;15.70;38.40;;;;;;8368373;28;19925;-50
2021/12/08 14:36:00;;;;;;;;;;;15.80;38.40;;;;;;8368468;28;19913;-53
2021/12/08 14:40:03;;;;;;;;;;;15.70;38.30;;;;;;8368629;28;19928;-49
2021/12/08 14:44:05;;;;;;;;;;;15.80;38.40;;;;;;8368645;28;20404;-49
2021/12/08 14:48:13;;;;;;;;;;;15.80;38.40;;;;;;8367771;28;19917;-50
2021/12/08 14:52:17;;;;;;;;;;;15.80;38.40;;;;;;8368620;28;20324;-49
2021/12/08 14:56:18;;;;;;;;;;;15.70;38.30;;;;;;8368192;28;19913;-50
2021/12/08 15:00:22;;;;;;;;;;;15.80;38.40;;;;;;8366496;28;19920;-49
2021/12/08 15:04:23;;;;;;;;;;;15.80;38.40;;;;;;8366037;28;19923;-48
2021/12/08 15:08:24;;;;;;;;;;;15.70;38.40;;;;;;8365776;28;19948;-49
2021/12/08 15:12:25;;;;;;;;;;;15.80;38.40;;;;;;8365176;28;19921;-50
2021/12/08 15:16:29;;;;;;;;;;;15.80;38.40;;;;;;8365360;28;19913;-49
2021/12/08 15:20:35;;;;;;;;;;;15.70;38.40;;;;;;8365508;28;19916;-50
2021/12/08 15:24:36;;;;;;;;;;;15.70;38.40;;;;;;8364896;28;20290;-49
2021/12/08 15:28:37;;;;;;;;;;;15.70;38.40;;;;;;8365508;28;19931;-50
2021/12/08 15:32:37;;;;;;;;;;;15.70;38.40;;;;;;8365667;28;19913;-49
2021/12/08 15:36:38;;;;;;;;;;;15.70;38.40;;;;;;8365032;28;20007;-48
2021/12/08 15:40:40;;;;;;;;;;;15.70;38.50;;;;;;8365043;28;20135;-50
2021/12/08 15:44:41;;;;;;;;;;;15.70;38.40;;;;;;8365093;28;19920;-48
2021/12/08 15:48:43;;;;;;;;;;;15.70;38.40;;;;;;8364487;28;19924;-48
2021/12/08 15:52:43;;;;;;;;;;;15.70;38.50;;;;;;8365288;28;19912;-49
2021/12/08 15:56:44;;;;;;;;;;;15.70;38.40;;;;;;8365143;28;19917;-49
2021/12/08 16:00:46;;;;;;;;;;;15.70;38.50;;;;;;8304618;28;1721654;-50
2021/12/08 16:04:51;;;;;;;;;;;15.70;39.00;;;;;;8366271;28;19924;-49
2021/12/08 16:08:57;;;;;;;;;;;15.70;38.40;;;;;;8365538;28;20015;-47
2021/12/08 16:13:03;;;;;;;;;;;15.70;38.40;;;;;;8366006;28;20003;-48
2021/12/08 16:17:21;;;;;;;;;;;15.70;38.40;;;;;;8365757;28;19924;-48
2021/12/08 16:21:22;;;;;;;;;;;15.70;38.40;;;;;;8365398;28;19921;-51
2021/12/08 16:25:24;;;;;;;;;;;15.70;38.40;;;;;;8365622;28;19977;-49
2021/12/08 16:29:25;;;;;;;;;;;15.70;38.40;;;;;;8364545;28;19921;-49
2021/12/08 16:33:26;;;;;;;;;;;15.70;38.40;;;;;;8364863;28;19921;-48
2021/12/08 16:37:26;;;;;;;;;;;15.70;38.40;;;;;;8365234;28;19948;-51
2021/12/08 16:45:57;;;;;;;;;;;15.70;38.40;;;;;;8256941;28;19924;-49
2021/12/08 16:49:58;;;;;;;;;;;15.80;38.40;;;;;;8354776;28;19972;-49
2021/12/08 16:53:58;;;;;;;;;;;15.70;38.40;;;;;;8364117;28;19920;-51
2021/12/08 16:58:00;;;;;;;;;;;15.80;38.40;;;;;;8364460;28;19913;-50
2021/12/08 17:02:01;;;;;;;;;;;15.70;38.40;;;;;;8365142;28;19928;-48
2021/12/08 17:06:04;;;;;;;;;;;15.70;38.40;;;;;;8346827;28;19921;-52
2021/12/08 17:10:05;;;;;;;;;;;15.70;38.40;;;;;;8354121;28;20366;-51
2021/12/08 17:14:06;;;;;;;;;;;15.70;38.40;;;;;;8364174;28;20362;-48
2021/12/08 17:18:07;;;;;;;;;;;15.70;38.40;;;;;;8363607;28;19931;-52
2021/12/08 17:22:07;;;;;;;;;;;15.70;38.40;;;;;;8364554;28;19920;-49
2021/12/08 17:26:08;;;;;;;;;;;15.70;38.40;;;;;;8363716;28;19917;-48
2021/12/08 17:30:10;;;;;;;;;;;15.70;38.40;;;;;;8363200;28;20263;-48
2021/12/08 17:34:10;;;;;;;;;;;15.70;38.40;;;;;;8363563;28;19923;-49
2021/12/08 17:38:11;;;;;;;;;;;15.70;38.40;;;;;;8363605;28;20298;-48
2021/12/08 17:42:12;;;;;;;;;;;15.70;38.40;;;;;;8363200;28;19917;-48
2021/12/08 17:46:12;;;;;;;;;;;15.70;38.50;;;;;;8363243;28;19927;-49
2021/12/08 17:50:13;;;;;;;;;;;15.70;38.50;;;;;;8363283;28;20337;-48
2021/12/08 17:54:14;;;;;;;;;;;15.70;38.50;;;;;;8362739;28;19917;-49
2021/12/08 17:58:14;;;;;;;;;;;15.70;38.50;;;;;;8363006;28;19916;-52
2021/12/08 18:02:18;;;;;;;;;;;15.70;38.50;;;;;;8363199;28;20354;-51
2021/12/08 18:06:18;;;;;;;;;;;15.70;38.50;;;;;;8362573;28;19917;-50
2021/12/08 18:10:19;;;;;;;;;;;15.70;38.50;;;;;;8362762;28;19954;-50
2021/12/08 18:14:20;;;;;;;;;;;15.70;38.50;;;;;;8362552;28;20003;-49
2021/12/08 18:18:20;;;;;;;;;;;15.70;38.40;;;;;;8362228;28;20485;-49
2021/12/08 18:22:21;;;;;;;;;;;15.70;38.40;;;;;;8363107;28;20054;-50
2021/12/08 18:26:21;;;;;;;;;;;15.70;38.40;;;;;;8362621;28;19917;-50
2021/12/08 18:30:23;;;;;;;;;;;15.70;38.40;;;;;;8361964;28;19925;-51
2021/12/08 18:34:25;;;;;;;;;;;15.70;38.40;;;;;;8362675;28;19921;-50
2021/12/08 18:38:27;;;;;;;;;;;15.80;38.40;;;;;;8362528;28;20297;-50
2021/12/08 18:42:29;;;;;;;;;;;15.70;38.40;;;;;;8362103;28;19912;-50
2021/12/08 18:46:30;;;;;;;;;;;15.70;38.40;;;;;;8362610;28;20366;-49
2021/12/08 18:50:30;;;;;;;;;;;15.70;38.40;;;;;;8362254;28;20039;-52
2021/12/08 18:54:33;;;;;;;;;;;15.70;38.40;;;;;;8365567;28;19952;-50
2021/12/08 18:58:33;;;;;;;;;;;15.70;38.40;;;;;;8368651;28;20072;-52
2021/12/08 19:02:34;;;;;;;;;;;15.70;38.40;;;;;;8368500;28;20374;-50
2021/12/08 19:06:35;;;;;;;;;;;15.70;38.40;;;;;;8367628;28;20015;-49
2021/12/08 19:10:36;;;;;;;;;;;15.70;38.40;;;;;;8367821;28;19925;-50
2021/12/08 19:14:36;;;;;;;;;;;15.70;38.40;;;;;;8367899;28;20430;-50
2021/12/08 19:18:37;;;;;;;;;;;15.70;38.30;;;;;;8367295;28;19917;-50
2021/12/08 19:22:38;;;;;;;;;;;15.70;38.40;;;;;;8367843;28;20362;-48
2021/12/08 19:26:38;;;;;;;;;;;15.70;38.40;;;;;;8367373;28;19936;-50
2021/12/08 19:30:40;;;;;;;;;;;15.70;38.40;;;;;;8366712;28;20008;-52
2021/12/08 19:34:40;;;;;;;;;;;15.70;38.40;;;;;;8367392;28;19948;-48
2021/12/08 19:38:41;;;;;;;;;;;15.70;38.40;;;;;;8366772;28;19924;-55
2021/12/08 19:42:42;;;;;;;;;;;15.70;38.30;;;;;;8366772;28;19913;-49
2021/12/08 19:46:44;;;;;;;;;;;15.70;38.40;;;;;;8367024;28;19923;-49
2021/12/08 19:50:45;;;;;;;;;;;15.70;38.40;;;;;;8366519;28;19925;-48
2021/12/08 19:54:47;;;;;;;;;;;15.70;38.40;;;;;;8366089;28;19916;-51
2021/12/08 19:58:48;;;;;;;;;;;15.70;38.40;;;;;;8366810;28;20011;-49
2021/12/08 20:02:49;;;;;;;;;;;15.70;38.40;;;;;;8366362;28;19913;-49
2021/12/08 20:06:49;;;;;;;;;;;15.70;38.40;;;;;;8365303;28;20409;-49
2021/12/08 20:10:50;;;;;;;;;;;15.70;38.40;;;;;;8349343;28;19932;-49
2021/12/08 20:14:50;;;;;;;;;;;15.70;38.40;;;;;;8343062;28;19968;-49
2021/12/08 20:18:51;;;;;;;;;;;15.70;38.40;;;;;;8366113;28;19939;-48
2021/12/08 20:22:51;;;;;;;;;;;15.70;38.30;;;;;;8366201;28;19919;-50
2021/12/08 20:26:52;;;;;;;;;;;15.70;38.90;;;;;;8363668;28;19917;-51
2021/12/08 20:30:52;;;;;;;;;;;15.70;38.40;;;;;;8365709;28;20374;-48
2021/12/08 20:34:55;;;;;;;;;;;15.70;38.30;;;;;;8365216;28;19917;-48
2021/12/08 20:38:56;;;;;;;;;;;15.70;38.30;;;;;;8364825;28;19916;-50
2021/12/08 20:42:58;;;;;;;;;;;15.70;38.30;;;;;;8365537;28;20028;-49
2021/12/08 20:47:00;;;;;;;;;;;15.70;38.40;;;;;;8364948;28;19916;-49
2021/12/08 20:51:02;;;;;;;;;;;15.70;38.40;;;;;;8364311;28;20031;-49
2021/12/08 20:55:04;;;;;;;;;;;15.70;38.30;;;;;;8364957;28;19924;-51
2021/12/08 20:59:06;;;;;;;;;;;15.70;38.40;;;;;;8364852;28;19920;-52
2021/12/08 21:03:08;;;;;;;;;;;15.70;38.30;;;;;;8364475;28;19917;-50
2021/12/08 21:07:09;;;;;;;;;;;15.70;38.40;;;;;;8363006;28;19916;-50
2021/12/08 21:11:11;;;;;;;;;;;15.70;38.30;;;;;;8364091;28;20336;-50
2021/12/08 21:15:11;;;;;;;;;;;15.70;38.30;;;;;;8363376;28;19917;-51
2021/12/08 21:19:12;;;;;;;;;;;15.70;38.30;;;;;;8364356;28;19920;-52
2021/12/08 21:23:14;;;;;;;;;;;15.70;38.30;;;;;;8364239;28;20378;-52
2021/12/08 21:27:14;;;;;;;;;;;15.70;38.30;;;;;;8363536;28;19967;-51
2021/12/08 21:31:15;;;;;;;;;;;15.70;38.30;;;;;;8363626;28;19924;-51
2021/12/08 21:35:29;;;;;;;;;;;15.60;38.30;;;;;;8363854;28;19913;-51
2021/12/08 21:39:29;;;;;;;;;;;15.70;38.30;;;;;;8363169;28;20289;-50
2021/12/08 21:43:31;;;;;;;;;;;15.70;38.40;;;;;;8363826;28;20007;-50
2021/12/08 21:47:32;;;;;;;;;;;15.60;38.30;;;;;;8363477;28;20003;-51
2021/12/08 21:51:33;;;;;;;;;;;15.60;38.30;;;;;;8362754;28;19928;-51
2021/12/08 21:55:34;;;;;;;;;;;15.60;38.30;;;;;;8363177;28;19999;-50
2021/12/08 21:59:34;;;;;;;;;;;15.60;38.40;;;;;;8363644;28;19921;-49
2021/12/08 22:03:35;;;;;;;;;;;15.60;38.30;;;;;;8363002;28;19917;-48
2021/12/08 22:07:36;;;;;;;;;;;15.60;38.30;;;;;;8363066;28;19924;-51
2021/12/08 22:11:37;;;;;;;;;;;15.60;38.30;;;;;;8363108;28;20043;-49
2021/12/08 22:15:43;;;;;;;;;;;15.60;38.30;;;;;;8362605;28;19917;-49
2021/12/08 22:19:44;;;;;;;;;;;15.60;38.30;;;;;;8363343;28;20362;-50
2021/12/08 22:23:46;;;;;;;;;;;15.60;38.30;;;;;;8363046;28;19916;-49
2021/12/08 22:27:46;;;;;;;;;;;15.60;38.30;;;;;;8363673;28;20416;-49
2021/12/08 22:31:46;;;;;;;;;;;15.60;38.30;;;;;;8369270;28;19925;-48
2021/12/08 22:35:47;;;;;;;;;;;15.60;38.30;;;;;;8369157;28;19916;-48
2021/12/08 22:39:50;;;;;;;;;;;15.60;38.30;;;;;;8368701;28;19917;-49
2021/12/08 22:43:51;;;;;;;;;;;15.60;38.40;;;;;;8368990;28;19917;-49
2021/12/08 22:47:52;;;;;;;;;;;15.60;38.30;;;;;;8368439;28;19943;-48
2021/12/08 22:51:52;;;;;;;;;;;15.60;38.30;;;;;;8368499;28;20432;-49
2021/12/08 22:55:53;;;;;;;;;;;15.60;38.90;;;;;;8368429;28;19912;-50
2021/12/08 22:59:53;;;;;;;;;;;15.60;38.30;;;;;;8368262;28;19921;-49
2021/12/08 23:03:54;;;;;;;;;;;15.60;38.30;;;;;;8337110;28;19920;-49
2021/12/08 23:08:00;;;;;;;;;;;15.60;38.40;;;;;;8361809;28;20002;-49
2021/12/08 23:12:01;;;;;;;;;;;15.60;38.30;;;;;;8367652;28;19925;-49
2021/12/08 23:16:01;;;;;;;;;;;15.60;38.30;;;;;;8368426;28;20377;-50
2021/12/08 23:20:04;;;;;;;;;;;15.60;38.30;;;;;;8367714;28;19956;-49
2021/12/08 23:24:05;;;;;;;;;;;15.70;38.30;;;;;;8367603;28;20007;-49
2021/12/08 23:28:05;;;;;;;;;;;15.70;38.20;;;;;;8367497;28;19917;-48
2021/12/08 23:32:07;;;;;;;;;;;15.70;38.20;;;;;;8367566;28;19943;-48
2021/12/08 23:36:09;;;;;;;;;;;15.70;38.70;;;;;;8366938;28;19958;-48
2021/12/08 23:40:10;;;;;;;;;;;15.70;38.20;;;;;;8367078;28;20361;-48
2021/12/08 23:44:10;;;;;;;;;;;15.70;38.20;;;;;;8367172;28;19917;-48
2021/12/08 23:48:11;;;;;;;;;;;15.80;38.20;;;;;;8366186;28;19921;-48
2021/12/08 23:52:11;;;;;;;;;;;15.70;38.10;;;;;;8366359;28;20019;-48
2021/12/08 23:56:12;;;;;;;;;;;15.80;38.70;;;;;;8366644;28;19913;-47
